Time;durP1;ratioP1;P1;durP2;ratioP2;P2;SDS_P1;SDS_P2;PMS_P1;PMS_P2;Temp;Humidity;BMP_temperature;BMP_pressure;BME280_temperature;BME280_humidity;BME280_pressure;Samples;Min_cycle;Max_cycle;Signal;HPM_P1;HPM_P2
2024/02/22 00:02:23;;;;;;;;;;;;;;;4.52;85.79;99544.84;5097141;28;19989;-65
2024/02/22 00:04:52;;;;;;;;;;;;;;;4.51;86.10;99536.41;5112839;28;19923;-65
2024/02/22 00:07:20;;;;;;;;;;;;;;;4.44;85.77;99524.47;5096630;28;19920;-66
2024/02/22 00:09:50;;;;;;;;;;;;;;;4.37;85.67;99511.66;5096593;28;19934;-65
2024/02/22 00:12:19;;;;;;;;;;;;;;;4.30;85.88;99509.84;5096947;28;19920;-65
2024/02/22 00:14:47;;;;;;;;;;;;;;;4.26;86.05;99497.97;5095662;28;19924;-66
2024/02/22 00:17:15;;;;;;;;;;;;;;;4.18;86.08;99507.03;5097268;28;19920;-65
2024/02/22 00:19:44;;;;;;;;;;;;;;;4.20;85.58;99497.84;5096086;28;19965;-65
2024/02/22 00:22:12;;;;;;;;;;;;;;;4.13;85.51;99496.03;5096380;28;19923;-66
2024/02/22 00:24:41;;;;;;;;;;;;;;;4.12;85.59;99486.72;5096402;28;20011;-65
2024/02/22 00:27:12;;;;;;;;;;;;;;;4.14;85.57;99492.66;5095457;28;19945;-65
2024/02/22 00:29:44;;;;;;;;;;;;;;;4.10;85.12;99493.41;5096586;28;20023;-66
2024/02/22 00:32:13;;;;;;;;;;;;;;;4.08;85.58;99493.38;5096237;28;19920;-65
2024/02/22 00:34:41;;;;;;;;;;;;;;;4.05;85.34;99494.16;5096795;28;19924;-66
2024/02/22 00:37:09;;;;;;;;;;;;;;;4.03;85.11;99487.41;5095217;28;19951;-65
2024/02/22 00:39:38;;;;;;;;;;;;;;;4.02;85.39;99484.00;5096392;28;19920;-66
2024/02/22 00:42:07;;;;;;;;;;;;;;;4.05;85.01;99488.28;5095999;28;20101;-65
2024/02/22 00:44:36;;;;;;;;;;;;;;;4.03;85.71;99478.13;5096631;28;19920;-65
2024/02/22 00:47:05;;;;;;;;;;;;;;;3.97;85.31;99475.47;5096674;28;19962;-66
2024/02/22 00:49:34;;;;;;;;;;;;;;;3.96;85.61;99473.75;5096206;28;19943;-65
2024/02/22 00:52:02;;;;;;;;;;;;;;;3.96;85.70;99468.72;5095968;28;19985;-65
2024/02/22 00:54:34;;;;;;;;;;;;;;;3.96;85.84;99468.72;5094676;28;19920;-65
2024/02/22 00:57:03;;;;;;;;;;;;;;;3.98;85.81;99462.00;5095938;28;19920;-66
2024/02/22 00:59:32;;;;;;;;;;;;;;;4.03;85.99;99460.44;5096025;28;19920;-65
2024/02/22 01:02:04;;;;;;;;;;;;;;;4.00;85.88;99455.34;5095792;28;19920;-65
2024/02/22 01:04:33;;;;;;;;;;;;;;;4.06;86.01;99455.47;5095587;28;19920;-65
2024/02/22 01:07:01;;;;;;;;;;;;;;;4.10;85.94;99450.50;5096237;28;19924;-65
2024/02/22 01:09:30;;;;;;;;;;;;;;;4.10;86.29;99446.31;5095752;28;19920;-65
2024/02/22 01:11:59;;;;;;;;;;;;;;;4.14;86.39;99447.19;5095627;28;19926;-65
2024/02/22 01:14:27;;;;;;;;;;;;;;;4.11;85.78;99437.03;5095955;28;20022;-65
2024/02/22 01:16:56;;;;;;;;;;;;;;;4.10;86.36;99435.34;5094457;28;20023;-64
2024/02/22 01:19:26;;;;;;;;;;;;;;;4.03;86.18;99425.09;5095598;28;19926;-65
2024/02/22 01:21:56;;;;;;;;;;;;;;;4.05;86.39;99431.03;5094646;28;20019;-65
2024/02/22 01:24:25;;;;;;;;;;;;;;;4.02;86.02;99428.47;5095264;28;19920;-65
2024/02/22 01:26:54;;;;;;;;;;;;;;;4.02;85.77;99433.50;5093724;28;19927;-65
2024/02/22 01:29:22;;;;;;;;;;;;;;;4.01;86.23;99421.69;5095366;28;19926;-65
2024/02/22 01:31:51;;;;;;;;;;;;;;;3.97;86.81;99414.03;5094047;28;19973;-65
2024/02/22 01:34:20;;;;;;;;;;;;;;;3.92;86.30;99416.47;5095363;28;19926;-65
2024/02/22 01:36:49;;;;;;;;;;;;;;;3.94;86.43;99419.00;5094991;28;20384;-65
2024/02/22 01:39:18;;;;;;;;;;;;;;;3.95;86.07;99415.69;5095140;28;20289;-65
2024/02/22 01:41:46;;;;;;;;;;;;;;;3.93;86.46;99413.13;5095413;28;19950;-65
2024/02/22 01:44:15;;;;;;;;;;;;;;;3.99;86.00;99410.72;5094719;28;19920;-65
2024/02/22 01:46:44;;;;;;;;;;;;;;;4.01;85.98;99401.50;5095063;28;20267;-65
2024/02/22 01:49:12;;;;;;;;;;;;;;;4.03;86.27;99394.81;5095009;28;19927;-65
2024/02/22 01:51:41;;;;;;;;;;;;;;;4.02;86.02;99377.97;5095052;28;19930;-65
2024/02/22 01:54:12;;;;;;;;;;;;;;;4.03;85.96;99373.78;5094910;28;20327;-65
2024/02/22 01:56:41;;;;;;;;;;;;;;;4.03;86.40;99369.56;5094659;28;19924;-65
2024/02/22 01:59:09;;;;;;;;;;;;;;;4.05;86.23;99365.38;5094806;28;19920;-65
2024/02/22 02:01:39;;;;;;;;;;;;;;;4.01;86.09;99360.25;5095157;28;19931;-65
2024/02/22 02:04:12;;;;;;;;;;;;;;;4.03;86.50;99353.59;5094394;28;19981;-65
2024/02/22 02:06:42;;;;;;;;;;;;;;;4.07;86.25;99350.28;5094807;28;20396;-65
2024/02/22 02:09:13;;;;;;;;;;;;;;;4.07;86.55;99340.19;5093471;28;19919;-65
2024/02/22 02:11:44;;;;;;;;;;;;;;;4.05;86.16;99341.84;5094762;28;19920;-65
2024/02/22 02:14:13;;;;;;;;;;;;;;;4.03;86.35;99338.44;5094397;28;19981;-65
2024/02/22 02:16:41;;;;;;;;;;;;;;;4.01;86.25;99328.28;5094645;28;20018;-65
2024/02/22 02:19:11;;;;;;;;;;;;;;;4.04;86.29;99323.31;5094534;28;19920;-65
2024/02/22 02:21:43;;;;;;;;;;;;;;;4.07;86.57;99315.78;5093434;28;20026;-65
2024/02/22 02:24:21;;;;;;;;;;;;;;;4.05;86.42;99311.53;5094539;28;19971;-65
2024/02/22 02:26:51;;;;;;;;;;;;;;;4.06;86.67;99314.09;5092794;28;20282;-65
2024/02/22 02:29:19;;;;;;;;;;;;;;;4.06;86.44;99319.13;5094417;28;20018;-65
2024/02/22 02:31:49;;;;;;;;;;;;;;;4.13;86.66;99309.16;5094092;28;19966;-65
2024/02/22 02:34:17;;;;;;;;;;;;;;;4.17;86.61;99310.91;5094036;28;19977;-65
2024/02/22 02:36:46;;;;;;;;;;;;;;;4.18;86.75;99305.03;5093202;28;19920;-65
2024/02/22 02:39:15;;;;;;;;;;;;;;;4.23;86.58;99303.44;5094383;28;20015;-65
2024/02/22 02:41:43;;;;;;;;;;;;;;;4.24;86.66;99302.63;5094886;28;19920;-65
2024/02/22 02:44:13;;;;;;;;;;;;;;;4.31;86.80;99304.44;5098577;28;19920;-65
2024/02/22 02:46:42;;;;;;;;;;;;;;;4.36;86.67;99292.75;5098558;28;20316;-65
2024/02/22 02:49:10;;;;;;;;;;;;;;;4.36;86.59;99283.50;5098509;28;20012;-64
2024/02/22 02:51:38;;;;;;;;;;;;;;;4.33;86.58;99282.56;5098339;28;19924;-65
2024/02/22 02:54:07;;;;;;;;;;;;;;;4.31;86.83;99276.66;5098211;28;19920;-65
2024/02/22 02:56:35;;;;;;;;;;;;;;;4.33;87.01;99268.28;5098421;28;19920;-65
2024/02/22 02:59:04;;;;;;;;;;;;;;;4.34;86.64;99269.13;5113745;28;19927;-64
2024/02/22 03:01:36;;;;;;;;;;;;;;;4.30;86.86;99267.34;5098218;28;20269;-65
2024/02/22 03:04:05;;;;;;;;;;;;;;;4.33;86.51;99262.38;5098190;28;19965;-65
2024/02/22 03:06:33;;;;;;;;;;;;;;;4.37;86.85;99261.59;5097832;28;19920;-65
2024/02/22 03:09:02;;;;;;;;;;;;;;;4.36;86.57;99252.31;5097799;28;19920;-65
2024/02/22 03:11:30;;;;;;;;;;;;;;;4.35;86.50;99250.63;5098205;28;20254;-65
2024/02/22 03:13:59;;;;;;;;;;;;;;;4.35;86.65;99245.56;5097807;28;20026;-65
2024/02/22 03:16:27;;;;;;;;;;;;;;;4.32;86.32;99245.53;5097986;28;19927;-65
2024/02/22 03:18:57;;;;;;;;;;;;;;;4.28;86.44;99238.72;5097737;28;19951;-65
2024/02/22 03:21:26;;;;;;;;;;;;;;;4.26;86.73;99247.94;5113634;28;20289;-65
2024/02/22 03:23:54;;;;;;;;;;;;;;;4.27;86.69;99249.66;5097873;28;19927;-65
2024/02/22 03:26:24;;;;;;;;;;;;;;;4.26;86.58;99248.78;5096203;28;20277;-65
2024/02/22 03:28:52;;;;;;;;;;;;;;;4.24;86.76;99242.88;5097789;28;19920;-65
2024/02/22 03:31:22;;;;;;;;;;;;;;;4.26;86.90;99245.41;5097309;28;19974;-65
2024/02/22 03:33:51;;;;;;;;;;;;;;;4.26;86.55;99240.34;5096326;28;19919;-65
2024/02/22 03:36:21;;;;;;;;;;;;;;;4.24;86.80;99236.97;5097623;28;19931;-65
2024/02/22 03:38:53;;;;;;;;;;;;;;;4.21;86.85;99239.44;5097674;28;19931;-65
2024/02/22 03:41:25;;;;;;;;;;;;;;;4.23;86.66;99237.78;5097603;28;19920;-65
2024/02/22 03:43:54;;;;;;;;;;;;;;;4.22;86.26;99228.50;5097407;28;19928;-65
2024/02/22 03:46:22;;;;;;;;;;;;;;;4.20;86.89;99235.22;5097423;28;20044;-65
2024/02/22 03:48:50;;;;;;;;;;;;;;;4.16;86.63;99233.44;5097363;28;19927;-65
2024/02/22 03:51:19;;;;;;;;;;;;;;;4.18;86.91;99240.22;5097338;28;19977;-65
2024/02/22 03:53:49;;;;;;;;;;;;;;;4.20;86.92;99240.28;5095857;28;19920;-65
2024/02/22 03:56:18;;;;;;;;;;;;;;;4.18;86.70;99241.88;5097231;28;20015;-65
2024/02/22 03:58:46;;;;;;;;;;;;;;;4.21;86.74;99235.22;5097222;28;19920;-65
2024/02/22 04:01:15;;;;;;;;;;;;;;;4.22;86.68;99241.16;5095791;28;20415;-65
2024/02/22 04:03:44;;;;;;;;;;;;;;;4.21;86.73;99241.94;5095735;28;19920;-64
2024/02/22 04:06:13;;;;;;;;;;;;;;;4.18;86.47;99231.78;5095868;28;20007;-65
2024/02/22 04:08:41;;;;;;;;;;;;;;;4.19;86.83;99236.03;5096650;28;19928;-64
2024/02/22 04:11:12;;;;;;;;;;;;;;;4.19;86.50;99241.09;5096917;28;19977;-65
2024/02/22 04:13:42;;;;;;;;;;;;;;;4.19;86.89;99236.88;5096823;28;19931;-65
2024/02/22 04:16:10;;;;;;;;;;;;;;;4.22;86.80;99234.41;5097196;28;19920;-65
2024/02/22 04:18:39;;;;;;;;;;;;;;;4.30;86.85;99221.91;5096836;28;19920;-65
2024/02/22 04:21:07;;;;;;;;;;;;;;;4.33;86.63;99221.97;5112633;28;19920;-65
2024/02/22 04:23:36;;;;;;;;;;;;;;;4.31;86.54;99218.56;5096565;28;19975;-65
2024/02/22 04:26:04;;;;;;;;;;;;;;;4.29;86.82;99205.91;5096375;28;19946;-65
2024/02/22 04:28:34;;;;;;;;;;;;;;;4.34;87.00;99203.47;5078383;28;20010;-66
2024/02/22 04:31:04;;;;;;;;;;;;;;;4.31;86.52;99200.88;5096988;28;19978;-65
2024/02/22 04:33:33;;;;;;;;;;;;;;;4.34;86.58;99193.38;5096328;28;19920;-65
2024/02/22 04:36:01;;;;;;;;;;;;;;;4.33;86.91;99182.41;5096803;28;19927;-65
2024/02/22 04:38:30;;;;;;;;;;;;;;;4.32;86.86;99185.75;5096080;28;19924;-65
2024/02/22 04:40:59;;;;;;;;;;;;;;;4.34;86.56;99193.38;5096408;28;20014;-65
2024/02/22 04:43:28;;;;;;;;;;;;;;;4.34;86.51;99183.25;5095922;28;19920;-65
2024/02/22 04:45:58;;;;;;;;;;;;;;;4.36;86.56;99181.59;5094889;28;20018;-66
2024/02/22 04:48:26;;;;;;;;;;;;;;;4.38;86.29;99183.31;5095858;28;19969;-65
2024/02/22 04:50:55;;;;;;;;;;;;;;;4.36;86.82;99172.34;5112030;28;20347;-65
2024/02/22 04:53:24;;;;;;;;;;;;;;;4.34;86.32;99170.63;5096733;28;20015;-65
2024/02/22 04:55:52;;;;;;;;;;;;;;;4.35;86.57;99167.25;5095671;28;20415;-65
2024/02/22 04:58:21;;;;;;;;;;;;;;;4.36;86.86;99156.34;5096023;28;19924;-65
2024/02/22 05:00:49;;;;;;;;;;;;;;;4.34;86.65;99163.91;5096254;28;19920;-65
2024/02/22 05:03:19;;;;;;;;;;;;;;;4.36;86.73;99163.91;5094195;28;20420;-65
2024/02/22 05:05:47;;;;;;;;;;;;;;;4.36;86.51;99169.81;5095712;28;20254;-65
2024/02/22 05:08:17;;;;;;;;;;;;;;;4.35;86.68;99159.69;5095843;28;19971;-64
2024/02/22 05:10:46;;;;;;;;;;;;;;;4.35;86.82;99155.47;5094682;28;19920;-65
2024/02/22 05:13:14;;;;;;;;;;;;;;;4.38;86.87;99155.53;5095751;28;19920;-65
2024/02/22 05:15:42;;;;;;;;;;;;;;;4.40;87.17;99158.94;5095346;28;19920;-65
2024/02/22 05:18:12;;;;;;;;;;;;;;;4.40;86.70;99146.31;5095911;28;20362;-65
2024/02/22 05:20:42;;;;;;;;;;;;;;;4.42;86.54;99141.25;5095467;28;20362;-65
2024/02/22 05:23:10;;;;;;;;;;;;;;;4.45;87.08;99131.22;5094371;28;20419;-65
2024/02/22 05:25:41;;;;;;;;;;;;;;;4.47;86.79;99129.56;5094943;28;20358;-66
2024/02/22 05:28:09;;;;;;;;;;;;;;;4.48;86.61;99126.22;5094251;28;19973;-65
2024/02/22 05:30:38;;;;;;;;;;;;;;;4.50;86.78;99134.66;5095284;28;19920;-65
2024/02/22 05:33:09;;;;;;;;;;;;;;;4.50;87.12;99119.50;5095406;28;19927;-65
2024/02/22 05:35:38;;;;;;;;;;;;;;;4.51;86.88;99116.97;5093835;28;20297;-65
2024/02/22 05:38:08;;;;;;;;;;;;;;;4.57;86.85;99106.13;5094050;28;19946;-65
2024/02/22 05:40:38;;;;;;;;;;;;;;;4.59;87.09;99109.50;5094033;28;20263;-65
2024/02/22 05:43:07;;;;;;;;;;;;;;;4.62;86.86;99105.38;5095262;28;19927;-65
2024/02/22 05:45:41;;;;;;;;;;;;;;;4.66;86.58;99093.59;5095051;28;19920;-65
2024/02/22 05:48:10;;;;;;;;;;;;;;;4.68;87.02;99094.47;5095097;28;19959;-65
2024/02/22 05:50:38;;;;;;;;;;;;;;;4.73;86.81;99097.91;5094733;28;19920;-66
2024/02/22 05:53:09;;;;;;;;;;;;;;;4.74;86.95;99090.38;5094985;28;19926;-65
2024/02/22 05:55:38;;;;;;;;;;;;;;;4.70;86.73;99087.78;5094727;28;19926;-65
2024/02/22 05:58:06;;;;;;;;;;;;;;;4.69;86.69;99086.06;5094908;28;20042;-65
2024/02/22 06:00:34;;;;;;;;;;;;;;;4.74;86.72;99084.44;5094923;28;20006;-65
2024/02/22 06:03:04;;;;;;;;;;;;;;;4.75;86.81;99087.00;5094813;28;19920;-65
2024/02/22 06:05:38;;;;;;;;;;;;;;;4.81;86.66;99085.38;5111839;28;19919;-65
2024/02/22 06:08:08;;;;;;;;;;;;;;;4.85;86.29;99077.84;5115126;28;20022;-65
2024/02/22 06:10:36;;;;;;;;;;;;;;;4.84;86.63;99071.09;5114740;28;20400;-65
2024/02/22 06:13:05;;;;;;;;;;;;;;;4.84;86.64;99063.53;5113499;28;20373;-65
2024/02/22 06:15:33;;;;;;;;;;;;;;;4.86;86.59;99069.44;5114805;28;19919;-65
2024/02/22 06:18:01;;;;;;;;;;;;;;;4.90;86.32;99066.09;5114389;28;19920;-65
2024/02/22 06:20:31;;;;;;;;;;;;;;;4.95;86.33;99054.38;5115079;28;19927;-65
2024/02/22 06:23:00;;;;;;;;;;;;;;;4.98;86.11;99054.41;5114615;28;19936;-66
2024/02/22 06:25:30;;;;;;;;;;;;;;;4.98;86.31;99054.41;5114327;28;20372;-65
2024/02/22 06:27:58;;;;;;;;;;;;;;;5.00;86.06;99057.81;5114847;28;19920;-65
2024/02/22 06:30:27;;;;;;;;;;;;;;;5.03;86.30;99057.84;5114683;28;19920;-65
2024/02/22 06:32:55;;;;;;;;;;;;;;;5.02;86.14;99056.13;5114469;28;19920;-66
2024/02/22 06:35:23;;;;;;;;;;;;;;;5.08;86.17;99041.03;5114529;28;19927;-65
2024/02/22 06:37:52;;;;;;;;;;;;;;;5.06;86.04;99041.84;5114385;28;19920;-65
2024/02/22 06:40:20;;;;;;;;;;;;;;;5.11;86.07;99041.06;5114802;28;19924;-65
2024/02/22 06:42:50;;;;;;;;;;;;;;;5.16;86.05;99044.47;5113349;28;19942;-66
2024/02/22 06:45:23;;;;;;;;;;;;;;;5.14;85.65;99043.63;5114628;28;19919;-65
2024/02/22 06:47:53;;;;;;;;;;;;;;;5.19;85.64;99036.94;5114613;28;20018;-64
2024/02/22 06:50:23;;;;;;;;;;;;;;;5.24;85.90;99030.25;5114580;28;20369;-66
2024/02/22 06:52:51;;;;;;;;;;;;;;;5.28;85.47;99029.44;5114625;28;19920;-65
2024/02/22 06:55:20;;;;;;;;;;;;;;;5.30;85.87;99026.94;5113158;28;19927;-66
2024/02/22 06:57:50;;;;;;;;;;;;;;;5.33;85.84;99025.25;5114366;28;20380;-65
2024/02/22 07:00:19;;;;;;;;;;;;;;;5.35;85.57;99028.66;5114440;28;19920;-65
2024/02/22 07:02:47;;;;;;;;;;;;;;;5.36;85.72;99017.72;5114485;28;20362;-66
2024/02/22 07:05:16;;;;;;;;;;;;;;;5.41;85.65;99005.09;5114427;28;19920;-65
2024/02/22 07:07:45;;;;;;;;;;;;;;;5.48;86.01;98995.88;5112844;28;20276;-65
2024/02/22 07:10:15;;;;;;;;;;;;;;;5.52;85.68;98984.97;5113118;28;20257;-65
2024/02/22 07:12:44;;;;;;;;;;;;;;;5.59;85.88;98990.06;5114429;28;19965;-66
2024/02/22 07:15:15;;;;;;;;;;;;;;;5.67;85.53;98987.59;5092652;28;20031;-65
2024/02/22 07:17:44;;;;;;;;;;;;;;;5.74;84.88;98984.25;5094009;28;20285;-64
2024/02/22 07:20:13;;;;;;;;;;;;;;;5.83;85.27;98984.34;5093977;28;19920;-65
2024/02/22 07:22:44;;;;;;;;;;;;;;;5.95;85.33;98969.28;5093960;28;19977;-66
2024/02/22 07:25:13;;;;;;;;;;;;;;;6.08;85.16;98971.00;5093311;28;19965;-64
2024/02/22 07:27:42;;;;;;;;;;;;;;;6.31;84.36;98983.81;5094477;28;19920;-64
2024/02/22 07:30:13;;;;;;;;;;;;;;;6.57;82.66;98967.88;5097671;28;19927;-64
2024/02/22 07:32:43;;;;;;;;;;;;;;;6.89;79.76;98964.56;5097586;28;19920;-64
2024/02/22 07:35:13;;;;;;;;;;;;;;;7.17;75.83;98956.19;5097153;28;19920;-64
2024/02/22 07:37:42;;;;;;;;;;;;;;;7.35;74.93;98951.09;5097298;28;20010;-64
2024/02/22 07:40:11;;;;;;;;;;;;;;;7.47;73.63;98940.94;5097412;28;19923;-64
2024/02/22 07:42:40;;;;;;;;;;;;;;;7.60;72.37;98940.13;5097579;28;20346;-64
2024/02/22 07:45:10;;;;;;;;;;;;;;;7.67;70.67;98949.41;5104964;28;19927;-64
2024/02/22 07:47:39;;;;;;;;;;;;;;;7.75;70.87;98945.16;5107726;28;19943;-65
2024/02/22 07:50:10;;;;;;;;;;;;;;;7.78;71.20;98937.53;5105977;28;20273;-65
2024/02/22 07:52:40;;;;;;;;;;;;;;;7.87;70.61;98932.44;5106093;28;19919;-65
2024/02/22 07:55:09;;;;;;;;;;;;;;;7.93;69.50;98937.50;5109013;28;19919;-65
2024/02/22 07:57:37;;;;;;;;;;;;;;;8.00;69.20;98929.03;5117320;28;20288;-65
2024/02/22 08:00:07;;;;;;;;;;;;;;;8.09;67.74;98929.00;5117561;28;19919;-65
2024/02/22 08:02:37;;;;;;;;;;;;;;;8.11;68.51;98924.75;5117501;28;19972;-65
2024/02/22 08:05:06;;;;;;;;;;;;;;;8.17;67.95;98921.34;5117430;28;20023;-66
2024/02/22 08:07:36;;;;;;;;;;;;;;;8.23;68.10;98925.56;5117107;28;19919;-64
2024/02/22 08:10:05;;;;;;;;;;;;;;;8.29;67.08;98915.41;5117345;28;20410;-64
2024/02/22 08:12:33;;;;;;;;;;;;;;;8.35;67.09;98915.38;5117043;28;20262;-63
2024/02/22 08:15:03;;;;;;;;;;;;;;;8.36;66.86;98914.53;5117209;28;19924;-64
2024/02/22 08:17:34;;;;;;;;;;;;;;;8.33;66.98;98914.53;5117042;28;19926;-65
2024/02/22 08:20:04;;;;;;;;;;;;;;;8.36;66.34;98914.53;5115751;28;19962;-65
2024/02/22 08:22:32;;;;;;;;;;;;;;;8.41;66.87;98916.19;5117406;28;20338;-64
2024/02/22 08:25:02;;;;;;;;;;;;;;;8.54;67.13;98914.44;5116544;28;19930;-65
2024/02/22 08:27:31;;;;;;;;;;;;;;;8.66;66.87;98911.84;5117323;28;19928;-64
2024/02/22 08:29:59;;;;;;;;;;;;;;;8.71;66.65;98910.09;5098721;28;20006;-63
2024/02/22 08:32:27;;;;;;;;;;;;;;;8.81;65.62;98901.56;5116882;28;19920;-65
2024/02/22 08:34:58;;;;;;;;;;;;;;;8.85;65.71;98893.06;5116820;28;19927;-65
2024/02/22 08:37:26;;;;;;;;;;;;;;;8.87;65.08;98896.44;5116384;28;19926;-63
2024/02/22 08:39:55;;;;;;;;;;;;;;;9.04;64.60;98894.63;5116126;28;19920;-64
2024/02/22 08:42:24;;;;;;;;;;;;;;;9.23;64.40;98896.19;5116394;28;19973;-64
2024/02/22 08:44:54;;;;;;;;;;;;;;;9.26;63.88;98880.84;5116347;28;19920;-65
2024/02/22 08:47:23;;;;;;;;;;;;;;;9.36;63.79;98885.00;5116503;28;19974;-63
2024/02/22 08:49:52;;;;;;;;;;;;;;;9.47;64.15;98879.84;5109824;28;20245;-65
2024/02/22 08:52:20;;;;;;;;;;;;;;;9.41;64.05;98879.88;5104244;28;20361;-66
2024/02/22 08:54:48;;;;;;;;;;;;;;;9.42;63.93;98867.16;5106741;28;19923;-64
2024/02/22 08:57:17;;;;;;;;;;;;;;;9.47;63.61;98861.16;5105179;28;20332;-64
2024/02/22 08:59:48;;;;;;;;;;;;;;;9.52;64.08;98846.69;5109121;28;20361;-65
2024/02/22 09:02:16;;;;;;;;;;;;;;;9.53;63.44;98828.81;5116350;28;19919;-64
2024/02/22 09:04:46;;;;;;;;;;;;;;;9.51;63.48;98819.50;5115918;28;19927;-64
2024/02/22 09:07:15;;;;;;;;;;;;;;;9.61;63.54;98806.69;5106769;28;19920;-64
2024/02/22 09:09:45;;;;;;;;;;;;;;;9.74;63.44;98812.50;5095483;28;19920;-65
2024/02/22 09:12:13;;;;;;;;;;;;;;;9.74;63.44;98803.09;5096032;28;19920;-64
2024/02/22 09:14:42;;;;;;;;;;;;;;;9.67;63.02;98810.88;5096023;28;19931;-65
2024/02/22 09:17:11;;;;;;;;;;;;;;;9.59;62.99;98802.47;5095285;28;19920;-67
2024/02/22 09:19:42;;;;;;;;;;;;;;;9.56;63.18;98792.28;5095630;28;20015;-65
2024/02/22 09:22:12;;;;;;;;;;;;;;;9.52;63.00;98786.41;5095672;28;19920;-64
2024/02/22 09:24:42;;;;;;;;;;;;;;;9.51;63.51;98781.31;5094844;28;19968;-65
2024/02/22 09:27:12;;;;;;;;;;;;;;;9.41;63.48;98778.88;5095286;28;20357;-64
2024/02/22 09:29:41;;;;;;;;;;;;;;;9.33;63.32;98770.44;5095107;28;19969;-63
2024/02/22 09:32:10;;;;;;;;;;;;;;;9.34;63.60;98767.06;5095349;28;20038;-65
2024/02/22 09:34:40;;;;;;;;;;;;;;;9.45;63.48;98759.31;5103042;28;20278;-65
2024/02/22 09:37:08;;;;;;;;;;;;;;;9.55;63.49;98750.69;5115481;28;19920;-65
2024/02/22 09:39:38;;;;;;;;;;;;;;;9.59;63.08;98766.78;5115670;28;19926;-66
2024/02/22 09:42:06;;;;;;;;;;;;;;;9.55;63.45;98780.44;5114366;28;20384;-63
2024/02/22 09:44:36;;;;;;;;;;;;;;;9.54;63.46;98783.84;5096389;28;19927;-64
2024/02/22 09:47:08;;;;;;;;;;;;;;;9.59;63.96;98782.94;5095187;28;19927;-65
2024/02/22 09:49:39;;;;;;;;;;;;;;;9.61;63.75;98773.56;5093765;28;20086;-64
2024/02/22 09:52:09;;;;;;;;;;;;;;;9.59;64.42;98766.78;5094494;28;19920;-65
2024/02/22 09:54:38;;;;;;;;;;;;;;;9.58;64.86;98749.81;5095303;28;20354;-66
2024/02/22 09:57:06;;;;;;;;;;;;;;;9.57;64.39;98753.25;5094780;28;20352;-65
2024/02/22 09:59:35;;;;;;;;;;;;;;;9.55;64.53;98739.69;5076547;28;19927;-66
2024/02/22 10:02:05;;;;;;;;;;;;;;;9.52;64.72;98734.63;5093547;28;19920;-64
2024/02/22 10:04:35;;;;;;;;;;;;;;;9.51;64.08;98727.81;5094742;28;19920;-66
2024/02/22 10:07:04;;;;;;;;;;;;;;;9.57;63.55;98717.59;5094750;28;19920;-64
2024/02/22 10:09:44;;;;;;;;;;;;;;;9.59;63.76;98715.84;5094719;28;19924;-63
2024/02/22 10:12:22;;;;;;;;;;;;;;;9.67;63.47;98714.06;5094361;28;19924;-65
2024/02/22 10:14:52;;;;;;;;;;;;;;;9.71;63.83;98705.50;5094491;28;19926;-66
2024/02/22 10:17:21;;;;;;;;;;;;;;;9.73;63.92;98708.88;5093019;28;19920;-66
2024/02/22 10:19:56;;;;;;;;;;;;;;;9.77;63.57;98710.50;5093714;28;19969;-65
2024/02/22 10:22:26;;;;;;;;;;;;;;;9.79;63.18;98711.34;5094233;28;20377;-64
2024/02/22 10:25:06;;;;;;;;;;;;;;;9.73;63.95;98708.88;5094130;28;20363;-64
2024/02/22 10:27:37;;;;;;;;;;;;;;;9.73;64.01;98706.31;5094068;28;19920;-65
2024/02/22 10:30:08;;;;;;;;;;;;;;;9.75;63.76;98719.88;5093262;28;19920;-64
2024/02/22 10:32:38;;;;;;;;;;;;;;;9.78;63.85;98707.09;5094549;28;19986;-66
2024/02/22 10:35:07;;;;;;;;;;;;;;;9.87;64.50;98709.53;5094341;28;19943;-66
2024/02/22 10:37:36;;;;;;;;;;;;;;;9.87;63.94;98717.19;5093977;28;20285;-66
2024/02/22 10:40:10;;;;;;;;;;;;;;;9.91;63.45;98703.53;5094353;28;19952;-66
2024/02/22 10:42:39;;;;;;;;;;;;;;;9.96;63.57;98701.75;5094370;28;19920;-65
2024/02/22 10:45:08;;;;;;;;;;;;;;;10.03;63.36;98681.25;5093926;28;19951;-66
2024/02/22 10:47:38;;;;;;;;;;;;;;;10.22;63.55;98673.38;5093944;28;20320;-66
2024/02/22 10:50:07;;;;;;;;;;;;;;;10.29;62.22;98680.91;5094221;28;19920;-65
2024/02/22 10:52:37;;;;;;;;;;;;;;;10.34;63.16;98670.63;5094224;28;20011;-66
2024/02/22 10:55:09;;;;;;;;;;;;;;;10.30;62.97;98677.47;5093803;28;20362;-65
2024/02/22 10:57:39;;;;;;;;;;;;;;;10.30;62.93;98684.28;5092752;28;19920;-66
2024/02/22 11:00:11;;;;;;;;;;;;;;;10.26;63.09;98663.09;5093818;28;20366;-66
2024/02/22 11:02:40;;;;;;;;;;;;;;;10.21;63.53;98652.13;5094677;28;19920;-67
2024/02/22 11:05:10;;;;;;;;;;;;;;;10.17;63.90;98650.50;5097708;28;19969;-66
2024/02/22 11:07:44;;;;;;;;;;;;;;;10.14;64.39;98649.69;5096872;28;19920;-66
2024/02/22 11:10:13;;;;;;;;;;;;;;;10.05;64.28;98645.56;5098185;28;19951;-68
2024/02/22 11:12:47;;;;;;;;;;;;;;;9.96;64.48;98653.31;5098194;28;19919;-66
2024/02/22 11:15:16;;;;;;;;;;;;;;;9.85;65.02;98630.56;5096893;28;19920;-67
2024/02/22 11:17:51;;;;;;;;;;;;;;;9.83;65.23;98628.91;5097463;28;19977;-66
2024/02/22 11:20:31;;;;;;;;;;;;;;;9.85;65.08;98629.72;5098031;28;19920;-66
2024/02/22 11:22:59;;;;;;;;;;;;;;;9.85;64.74;98601.69;5096611;28;19920;-65
2024/02/22 11:25:28;;;;;;;;;;;;;;;9.90;64.72;98605.84;5097409;28;19981;-66
2024/02/22 11:27:59;;;;;;;;;;;;;;;10.00;64.39;98586.16;5097838;28;19935;-66
2024/02/22 11:30:28;;;;;;;;;;;;;;;10.07;64.18;98588.59;5098140;28;19927;-65
2024/02/22 11:32:57;;;;;;;;;;;;;;;10.09;64.13;98578.34;5097383;28;19920;-66
2024/02/22 11:35:26;;;;;;;;;;;;;;;10.08;64.62;98599.59;5097388;28;19920;-66
2024/02/22 11:37:58;;;;;;;;;;;;;;;10.08;65.90;98581.75;5097244;28;19924;-66
2024/02/22 11:40:30;;;;;;;;;;;;;;;10.08;66.49;98579.22;5101339;28;19919;-65
2024/02/22 11:43:01;;;;;;;;;;;;;;;10.05;66.15;98589.47;5098921;28;20356;-65
2024/02/22 11:45:29;;;;;;;;;;;;;;;10.09;66.61;98570.72;5117724;28;19966;-66
2024/02/22 11:47:58;;;;;;;;;;;;;;;10.16;65.86;98571.47;5117893;28;19966;-66
2024/02/22 11:50:28;;;;;;;;;;;;;;;10.24;65.15;98570.50;5117636;28;19933;-65
2024/02/22 11:52:58;;;;;;;;;;;;;;;10.32;64.64;98571.19;5117429;28;19919;-66
2024/02/22 11:55:28;;;;;;;;;;;;;;;10.36;65.02;98574.53;5117634;28;20014;-66
2024/02/22 11:57:56;;;;;;;;;;;;;;;10.40;65.23;98574.44;5117425;28;19988;-65
2024/02/22 12:00:26;;;;;;;;;;;;;;;10.43;66.02;98571.84;5117641;28;20018;-66
2024/02/22 12:02:55;;;;;;;;;;;;;;;10.39;64.69;98559.19;5117354;27;20343;-66
2024/02/22 12:05:24;;;;;;;;;;;;;;;10.43;64.42;98555.69;5117343;28;20388;-66
2024/02/22 12:07:53;;;;;;;;;;;;;;;10.42;64.37;98554.84;5117352;28;19919;-68
2024/02/22 12:10:22;;;;;;;;;;;;;;;10.40;64.98;98556.59;5117382;28;19920;-66
2024/02/22 12:12:51;;;;;;;;;;;;;;;10.45;64.34;98554.81;5116159;28;19920;-65
2024/02/22 12:15:20;;;;;;;;;;;;;;;10.47;63.81;98547.97;5115929;28;19920;-66
2024/02/22 12:17:55;;;;;;;;;;;;;;;10.49;64.15;98528.38;5116880;28;19924;-65
2024/02/22 12:20:23;;;;;;;;;;;;;;;10.52;63.28;98530.00;5116837;28;19920;-65
2024/02/22 12:22:53;;;;;;;;;;;;;;;10.55;63.33;98520.59;5117105;28;19962;-67
2024/02/22 12:25:21;;;;;;;;;;;;;;;10.54;63.81;98524.00;5116774;27;19919;-65
2024/02/22 12:27:52;;;;;;;;;;;;;;;10.53;63.76;98517.22;5116969;28;19927;-66
2024/02/22 12:30:21;;;;;;;;;;;;;;;10.54;63.95;98512.97;5117077;28;20053;-65
2024/02/22 12:32:50;;;;;;;;;;;;;;;10.54;63.81;98515.53;5116721;28;20288;-66
2024/02/22 12:35:21;;;;;;;;;;;;;;;10.55;63.61;98510.41;5115800;28;20365;-65
2024/02/22 12:37:50;;;;;;;;;;;;;;;10.54;63.75;98503.59;5116739;28;19920;-65
2024/02/22 12:40:19;;;;;;;;;;;;;;;10.56;63.92;98501.88;5116849;28;19920;-66
2024/02/22 12:42:53;;;;;;;;;;;;;;;10.60;63.81;98497.56;5096275;28;19923;-66
2024/02/22 12:45:22;;;;;;;;;;;;;;;10.64;64.17;98494.91;5116655;28;19920;-66
2024/02/22 12:47:51;;;;;;;;;;;;;;;10.63;63.70;98493.22;5116596;28;20422;-66
2024/02/22 12:50:23;;;;;;;;;;;;;;;10.67;63.93;98474.44;5098436;28;19919;-67
2024/02/22 12:52:51;;;;;;;;;;;;;;;10.66;63.90;98488.06;5116555;28;19965;-65
2024/02/22 12:55:20;;;;;;;;;;;;;;;10.71;63.95;98483.72;5115276;28;20015;-65
2024/02/22 12:57:49;;;;;;;;;;;;;;;10.72;63.47;98472.59;5116169;28;20270;-66
2024/02/22 13:00:17;;;;;;;;;;;;;;;10.76;63.72;98466.59;5115868;28;19920;-65
2024/02/22 13:02:46;;;;;;;;;;;;;;;10.80;63.63;98466.53;5115300;28;19931;-67
2024/02/22 13:05:14;;;;;;;;;;;;;;;10.82;63.53;98452.03;5116347;28;20369;-65
2024/02/22 13:07:44;;;;;;;;;;;;;;;10.90;62.76;98456.06;5116384;28;20277;-65